sensor_id;sensor_type;location;lat;lon;timestamp;temperature;humidity
43679;DHT22;29279;50.858;4.392;2023-08-06T00:01:53;15.80;99.90
43679;DHT22;29279;50.858;4.392;2023-08-06T00:04:19;15.70;99.90
43679;DHT22;29279;50.858;4.392;2023-08-06T00:06:45;15.70;99.90
43679;DHT22;29279;50.858;4.392;2023-08-06T00:09:10;15.80;99.90
43679;DHT22;29279;50.858;4.392;2023-08-06T00:11:36;15.90;99.90
43679;DHT22;29279;50.858;4.392;2023-08-06T00:14:02;15.80;99.90
43679;DHT22;29279;50.858;4.392;2023-08-06T00:16:27;16.00;99.90
43679;DHT22;29279;50.858;4.392;2023-08-06T00:18:53;15.90;99.90
43679;DHT22;29279;50.858;4.392;2023-08-06T00:21:18;16.00;99.90
43679;DHT22;29279;50.858;4.392;2023-08-06T00:23:44;16.00;99.90
43679;DHT22;29279;50.858;4.392;2023-08-06T00:26:10;16.00;99.90
43679;DHT22;29279;50.858;4.392;2023-08-06T00:28:35;15.90;99.90
43679;DHT22;29279;50.858;4.392;2023-08-06T00:31:01;15.90;99.90
43679;DHT22;29279;50.858;4.392;2023-08-06T00:33:26;16.00;99.90
43679;DHT22;29279;50.858;4.392;2023-08-06T00:35:52;16.00;99.90
43679;DHT22;29279;50.858;4.392;2023-08-06T00:38:18;16.00;99.90
43679;DHT22;29279;50.858;4.392;2023-08-06T00:40:43;16.00;99.90
43679;DHT22;29279;50.858;4.392;2023-08-06T00:43:09;16.10;99.90
43679;DHT22;29279;50.858;4.392;2023-08-06T00:45:36;16.10;99.90
43679;DHT22;29279;50.858;4.392;2023-08-06T00:48:04;16.20;99.90
43679;DHT22;29279;50.858;4.392;2023-08-06T00:50:30;16.20;99.90
43679;DHT22;29279;50.858;4.392;2023-08-06T00:52:56;16.10;99.90
43679;DHT22;29279;50.858;4.392;2023-08-06T00:55:22;16.10;99.90
43679;DHT22;29279;50.858;4.392;2023-08-06T00:57:48;16.00;99.90
43679;DHT22;29279;50.858;4.392;2023-08-06T01:00:14;16.00;99.90
43679;DHT22;29279;50.858;4.392;2023-08-06T01:02:39;16.00;99.90
43679;DHT22;29279;50.858;4.392;2023-08-06T01:05:05;15.90;99.90
43679;DHT22;29279;50.858;4.392;2023-08-06T01:16:03;16.00;99.90
43679;DHT22;29279;50.858;4.392;2023-08-06T01:18:31;15.90;99.90
43679;DHT22;29279;50.858;4.392;2023-08-06T01:20:57;16.00;99.90
43679;DHT22;29279;50.858;4.392;2023-08-06T01:23:23;16.10;99.90
43679;DHT22;29279;50.858;4.392;2023-08-06T01:26:51;16.20;99.90
43679;DHT22;29279;50.858;4.392;2023-08-06T01:31:37;16.20;99.90
43679;DHT22;29279;50.858;4.392;2023-08-06T01:34:09;16.30;99.90
43679;DHT22;29279;50.858;4.392;2023-08-06T01:36:36;16.30;99.90
43679;DHT22;29279;50.858;4.392;2023-08-06T01:39:02;16.30;99.90
43679;DHT22;29279;50.858;4.392;2023-08-06T01:41:27;16.30;99.90
43679;DHT22;29279;50.858;4.392;2023-08-06T01:43:53;16.30;99.90
43679;DHT22;29279;50.858;4.392;2023-08-06T01:46:19;16.30;99.90
43679;DHT22;29279;50.858;4.392;2023-08-06T01:48:44;16.30;99.90
43679;DHT22;29279;50.858;4.392;2023-08-06T01:51:10;16.20;99.90
43679;DHT22;29279;50.858;4.392;2023-08-06T01:53:36;16.20;99.90
43679;DHT22;29279;50.858;4.392;2023-08-06T01:56:01;16.20;99.90
43679;DHT22;29279;50.858;4.392;2023-08-06T01:58:27;16.30;99.90
43679;DHT22;29279;50.858;4.392;2023-08-06T02:00:53;16.30;99.90
43679;DHT22;29279;50.858;4.392;2023-08-06T02:03:18;16.30;99.90
43679;DHT22;29279;50.858;4.392;2023-08-06T02:05:44;16.20;99.90
43679;DHT22;29279;50.858;4.392;2023-08-06T02:08:11;16.20;99.90
43679;DHT22;29279;50.858;4.392;2023-08-06T02:10:36;16.20;99.90
43679;DHT22;29279;50.858;4.392;2023-08-06T02:13:02;16.10;99.90
43679;DHT22;29279;50.858;4.392;2023-08-06T02:15:28;16.30;99.90
43679;DHT22;29279;50.858;4.392;2023-08-06T02:17:53;16.30;99.90
43679;DHT22;29279;50.858;4.392;2023-08-06T02:20:19;16.30;99.90
43679;DHT22;29279;50.858;4.392;2023-08-06T02:22:45;16.30;99.90
43679;DHT22;29279;50.858;4.392;2023-08-06T02:25:10;16.30;99.90
43679;DHT22;29279;50.858;4.392;2023-08-06T02:27:37;16.30;99.90
43679;DHT22;29279;50.858;4.392;2023-08-06T02:30:03;16.30;99.90
43679;DHT22;29279;50.858;4.392;2023-08-06T02:32:30;16.40;99.90
43679;DHT22;29279;50.858;4.392;2023-08-06T02:34:59;16.30;99.90
43679;DHT22;29279;50.858;4.392;2023-08-06T02:37:25;16.30;99.90
43679;DHT22;29279;50.858;4.392;2023-08-06T02:39:51;16.30;99.90
43679;DHT22;29279;50.858;4.392;2023-08-06T02:42:16;16.20;99.90
43679;DHT22;29279;50.858;4.392;2023-08-06T02:44:42;16.30;99.90
43679;DHT22;29279;50.858;4.392;2023-08-06T02:47:07;16.20;99.90
43679;DHT22;29279;50.858;4.392;2023-08-06T02:49:33;16.20;99.90
43679;DHT22;29279;50.858;4.392;2023-08-06T02:51:59;16.20;99.90
43679;DHT22;29279;50.858;4.392;2023-08-06T02:54:24;16.10;99.90
43679;DHT22;29279;50.858;4.392;2023-08-06T02:56:50;16.10;99.90
43679;DHT22;29279;50.858;4.392;2023-08-06T02:59:16;16.00;99.90
43679;DHT22;29279;50.858;4.392;2023-08-06T03:01:41;16.10;99.90
43679;DHT22;29279;50.858;4.392;2023-08-06T03:04:07;16.20;99.90
43679;DHT22;29279;50.858;4.392;2023-08-06T03:06:33;16.10;99.90
43679;DHT22;29279;50.858;4.392;2023-08-06T03:08:58;16.20;99.90
43679;DHT22;29279;50.858;4.392;2023-08-06T03:11:24;16.20;99.90
43679;DHT22;29279;50.858;4.392;2023-08-06T03:13:49;16.20;99.90
43679;DHT22;29279;50.858;4.392;2023-08-06T03:16:15;16.30;99.90
43679;DHT22;29279;50.858;4.392;2023-08-06T03:18:41;16.30;99.90
43679;DHT22;29279;50.858;4.392;2023-08-06T03:21:06;16.30;99.90
43679;DHT22;29279;50.858;4.392;2023-08-06T03:23:32;16.40;99.90
43679;DHT22;29279;50.858;4.392;2023-08-06T03:26:02;16.40;99.90
43679;DHT22;29279;50.858;4.392;2023-08-06T03:28:28;16.50;99.90
43679;DHT22;29279;50.858;4.392;2023-08-06T03:31:03;16.50;99.90
43679;DHT22;29279;50.858;4.392;2023-08-06T03:33:29;16.50;99.90
43679;DHT22;29279;50.858;4.392;2023-08-06T03:35:55;16.60;99.90
43679;DHT22;29279;50.858;4.392;2023-08-06T03:38:21;16.60;99.90
43679;DHT22;29279;50.858;4.392;2023-08-06T03:40:48;16.70;99.90
43679;DHT22;29279;50.858;4.392;2023-08-06T03:43:13;16.70;99.90
43679;DHT22;29279;50.858;4.392;2023-08-06T03:45:40;16.80;99.90
43679;DHT22;29279;50.858;4.392;2023-08-06T03:48:06;16.80;99.90
43679;DHT22;29279;50.858;4.392;2023-08-06T03:50:32;16.80;99.90
43679;DHT22;29279;50.858;4.392;2023-08-06T03:52:58;16.80;99.90
43679;DHT22;29279;50.858;4.392;2023-08-06T03:55:23;16.80;99.90
43679;DHT22;29279;50.858;4.392;2023-08-06T03:57:49;16.90;99.90
43679;DHT22;29279;50.858;4.392;2023-08-06T04:00:15;16.90;99.90
43679;DHT22;29279;50.858;4.392;2023-08-06T04:02:40;17.00;99.90
43679;DHT22;29279;50.858;4.392;2023-08-06T04:05:06;17.10;99.90
43679;DHT22;29279;50.858;4.392;2023-08-06T04:07:32;17.00;99.90
43679;DHT22;29279;50.858;4.392;2023-08-06T04:10:00;17.00;99.90
43679;DHT22;29279;50.858;4.392;2023-08-06T04:12:26;16.80;99.90
43679;DHT22;29279;50.858;4.392;2023-08-06T04:14:52;16.70;99.90
43679;DHT22;29279;50.858;4.392;2023-08-06T04:17:18;16.60;99.90
43679;DHT22;29279;50.858;4.392;2023-08-06T04:19:51;16.30;99.90
43679;DHT22;29279;50.858;4.392;2023-08-06T04:22:17;16.10;99.90
43679;DHT22;29279;50.858;4.392;2023-08-06T04:24:43;15.80;99.90
43679;DHT22;29279;50.858;4.392;2023-08-06T04:27:10;15.90;99.90
43679;DHT22;29279;50.858;4.392;2023-08-06T04:29:36;16.00;99.90
43679;DHT22;29279;50.858;4.392;2023-08-06T04:32:05;15.80;99.90
43679;DHT22;29279;50.858;4.392;2023-08-06T04:34:31;15.60;99.90
43679;DHT22;29279;50.858;4.392;2023-08-06T04:36:56;15.50;99.90
43679;DHT22;29279;50.858;4.392;2023-08-06T04:39:22;15.40;99.90
43679;DHT22;29279;50.858;4.392;2023-08-06T04:41:47;15.20;99.90
43679;DHT22;29279;50.858;4.392;2023-08-06T04:44:16;15.10;99.90
43679;DHT22;29279;50.858;4.392;2023-08-06T04:46:42;15.10;99.90
43679;DHT22;29279;50.858;4.392;2023-08-06T04:49:08;15.00;99.90
43679;DHT22;29279;50.858;4.392;2023-08-06T04:51:33;15.00;99.90
43679;DHT22;29279;50.858;4.392;2023-08-06T04:53:59;15.10;99.90
43679;DHT22;29279;50.858;4.392;2023-08-06T04:56:25;15.10;99.90
43679;DHT22;29279;50.858;4.392;2023-08-06T04:58:54;15.10;99.90
43679;DHT22;29279;50.858;4.392;2023-08-06T05:01:19;15.20;99.90
43679;DHT22;29279;50.858;4.392;2023-08-06T05:03:46;15.20;99.90
43679;DHT22;29279;50.858;4.392;2023-08-06T05:06:12;15.20;99.90
43679;DHT22;29279;50.858;4.392;2023-08-06T05:08:37;15.20;99.90
43679;DHT22;29279;50.858;4.392;2023-08-06T05:11:03;15.20;99.90
43679;DHT22;29279;50.858;4.392;2023-08-06T05:13:29;15.20;99.90
43679;DHT22;29279;50.858;4.392;2023-08-06T05:15:55;15.20;99.90
43679;DHT22;29279;50.858;4.392;2023-08-06T05:18:20;15.10;99.90
43679;DHT22;29279;50.858;4.392;2023-08-06T05:20:46;15.20;99.90
43679;DHT22;29279;50.858;4.392;2023-08-06T05:23:12;15.20;99.90
43679;DHT22;29279;50.858;4.392;2023-08-06T05:25:38;15.20;99.90
43679;DHT22;29279;50.858;4.392;2023-08-06T05:28:04;15.10;99.90
43679;DHT22;29279;50.858;4.392;2023-08-06T05:30:30;15.10;99.90
43679;DHT22;29279;50.858;4.392;2023-08-06T05:32:56;15.10;99.90
43679;DHT22;29279;50.858;4.392;2023-08-06T05:35:22;15.10;99.90
43679;DHT22;29279;50.858;4.392;2023-08-06T05:37:49;15.10;99.90
43679;DHT22;29279;50.858;4.392;2023-08-06T05:40:15;15.10;99.90
43679;DHT22;29279;50.858;4.392;2023-08-06T05:42:41;15.10;99.90
43679;DHT22;29279;50.858;4.392;2023-08-06T05:45:07;15.10;99.90
43679;DHT22;29279;50.858;4.392;2023-08-06T05:47:33;15.00;99.90
43679;DHT22;29279;50.858;4.392;2023-08-06T05:49:59;15.00;99.90
43679;DHT22;29279;50.858;4.392;2023-08-06T05:52:24;15.00;99.90
43679;DHT22;29279;50.858;4.392;2023-08-06T05:54:50;15.10;99.90
43679;DHT22;29279;50.858;4.392;2023-08-06T05:57:16;15.10;99.90
43679;DHT22;29279;50.858;4.392;2023-08-06T05:59:42;15.10;99.90
43679;DHT22;29279;50.858;4.392;2023-08-06T06:02:07;15.20;99.90
43679;DHT22;29279;50.858;4.392;2023-08-06T06:04:33;15.30;99.90
43679;DHT22;29279;50.858;4.392;2023-08-06T06:06:59;15.30;99.90
43679;DHT22;29279;50.858;4.392;2023-08-06T06:09:25;15.30;99.90
43679;DHT22;29279;50.858;4.392;2023-08-06T06:11:51;15.40;99.90
43679;DHT22;29279;50.858;4.392;2023-08-06T06:14:17;15.40;99.90
43679;DHT22;29279;50.858;4.392;2023-08-06T06:16:43;15.40;99.90
43679;DHT22;29279;50.858;4.392;2023-08-06T06:19:09;15.40;99.90
43679;DHT22;29279;50.858;4.392;2023-08-06T06:21:34;15.40;99.90
43679;DHT22;29279;50.858;4.392;2023-08-06T06:24:00;15.40;99.90
43679;DHT22;29279;50.858;4.392;2023-08-06T06:26:26;15.50;99.90
43679;DHT22;29279;50.858;4.392;2023-08-06T06:28:52;15.60;99.90
43679;DHT22;29279;50.858;4.392;2023-08-06T06:31:17;15.60;99.90
43679;DHT22;29279;50.858;4.392;2023-08-06T06:33:43;15.60;99.90
43679;DHT22;29279;50.858;4.392;2023-08-06T06:36:09;15.60;99.90
43679;DHT22;29279;50.858;4.392;2023-08-06T06:38:35;15.50;99.90
43679;DHT22;29279;50.858;4.392;2023-08-06T06:41:04;15.60;99.90
43679;DHT22;29279;50.858;4.392;2023-08-06T06:43:30;15.60;99.90
43679;DHT22;29279;50.858;4.392;2023-08-06T06:45:57;15.50;99.90
43679;DHT22;29279;50.858;4.392;2023-08-06T06:48:29;15.40;99.90
43679;DHT22;29279;50.858;4.392;2023-08-06T06:50:55;15.30;99.90
43679;DHT22;29279;50.858;4.392;2023-08-06T06:53:21;15.30;99.90
43679;DHT22;29279;50.858;4.392;2023-08-06T06:55:56;15.40;99.90
43679;DHT22;29279;50.858;4.392;2023-08-06T06:58:22;15.30;99.90
43679;DHT22;29279;50.858;4.392;2023-08-06T07:00:48;15.40;99.90
43679;DHT22;29279;50.858;4.392;2023-08-06T07:03:17;15.30;99.90
43679;DHT22;29279;50.858;4.392;2023-08-06T07:05:44;15.30;99.90
43679;DHT22;29279;50.858;4.392;2023-08-06T07:08:09;15.20;99.90
43679;DHT22;29279;50.858;4.392;2023-08-06T07:10:35;15.20;99.90
43679;DHT22;29279;50.858;4.392;2023-08-06T07:13:01;15.30;99.90
43679;DHT22;29279;50.858;4.392;2023-08-06T07:15:26;15.50;99.90
43679;DHT22;29279;50.858;4.392;2023-08-06T07:17:52;15.50;99.90
43679;DHT22;29279;50.858;4.392;2023-08-06T07:20:18;15.50;99.90
43679;DHT22;29279;50.858;4.392;2023-08-06T07:22:44;15.40;99.90
43679;DHT22;29279;50.858;4.392;2023-08-06T07:25:10;15.40;99.90
43679;DHT22;29279;50.858;4.392;2023-08-06T07:27:36;15.40;99.90
43679;DHT22;29279;50.858;4.392;2023-08-06T07:30:02;15.30;99.90
43679;DHT22;29279;50.858;4.392;2023-08-06T07:32:28;15.30;99.90
43679;DHT22;29279;50.858;4.392;2023-08-06T07:34:53;15.20;99.90
43679;DHT22;29279;50.858;4.392;2023-08-06T07:37:26;15.30;99.90
43679;DHT22;29279;50.858;4.392;2023-08-06T07:39:54;15.30;99.90
43679;DHT22;29279;50.858;4.392;2023-08-06T07:42:19;15.40;99.90
43679;DHT22;29279;50.858;4.392;2023-08-06T07:44:56;15.50;99.90
43679;DHT22;29279;50.858;4.392;2023-08-06T07:47:22;15.60;99.90
43679;DHT22;29279;50.858;4.392;2023-08-06T07:49:48;15.80;99.90
43679;DHT22;29279;50.858;4.392;2023-08-06T07:52:14;15.80;99.90
43679;DHT22;29279;50.858;4.392;2023-08-06T07:54:40;15.80;99.90
43679;DHT22;29279;50.858;4.392;2023-08-06T07:57:06;15.80;99.90
43679;DHT22;29279;50.858;4.392;2023-08-06T07:59:31;15.80;99.90
43679;DHT22;29279;50.858;4.392;2023-08-06T08:01:57;15.80;99.90
43679;DHT22;29279;50.858;4.392;2023-08-06T08:04:24;15.80;99.90
43679;DHT22;29279;50.858;4.392;2023-08-06T08:06:49;16.00;99.90
43679;DHT22;29279;50.858;4.392;2023-08-06T08:09:15;16.10;99.90
43679;DHT22;29279;50.858;4.392;2023-08-06T08:11:41;16.10;99.90
43679;DHT22;29279;50.858;4.392;2023-08-06T08:14:07;16.20;99.90
43679;DHT22;29279;50.858;4.392;2023-08-06T08:16:33;16.20;99.90
43679;DHT22;29279;50.858;4.392;2023-08-06T08:18:58;16.20;99.90
43679;DHT22;29279;50.858;4.392;2023-08-06T08:21:24;16.10;99.90
43679;DHT22;29279;50.858;4.392;2023-08-06T08:23:50;16.10;99.90
43679;DHT22;29279;50.858;4.392;2023-08-06T08:26:16;16.00;99.90
43679;DHT22;29279;50.858;4.392;2023-08-06T08:28:42;15.90;99.90
43679;DHT22;29279;50.858;4.392;2023-08-06T08:31:08;15.90;99.90
43679;DHT22;29279;50.858;4.392;2023-08-06T08:33:34;15.90;99.90
43679;DHT22;29279;50.858;4.392;2023-08-06T08:36:00;15.90;99.90
43679;DHT22;29279;50.858;4.392;2023-08-06T08:38:26;15.70;99.90
43679;DHT22;29279;50.858;4.392;2023-08-06T08:40:53;15.50;99.90
43679;DHT22;29279;50.858;4.392;2023-08-06T08:43:21;15.40;99.90
43679;DHT22;29279;50.858;4.392;2023-08-06T08:45:50;15.30;99.90
43679;DHT22;29279;50.858;4.392;2023-08-06T08:48:16;15.40;99.90
43679;DHT22;29279;50.858;4.392;2023-08-06T08:50:45;15.50;99.90
43679;DHT22;29279;50.858;4.392;2023-08-06T08:53:12;15.60;99.90
43679;DHT22;29279;50.858;4.392;2023-08-06T08:55:38;15.70;99.90
43679;DHT22;29279;50.858;4.392;2023-08-06T08:58:04;15.80;99.90
43679;DHT22;29279;50.858;4.392;2023-08-06T09:00:30;15.70;99.90
43679;DHT22;29279;50.858;4.392;2023-08-06T09:02:59;15.70;99.90
43679;DHT22;29279;50.858;4.392;2023-08-06T09:05:28;15.70;99.90
43679;DHT22;29279;50.858;4.392;2023-08-06T09:08:07;15.70;99.90
43679;DHT22;29279;50.858;4.392;2023-08-06T09:10:34;15.80;99.90
43679;DHT22;29279;50.858;4.392;2023-08-06T09:13:02;15.70;99.90
43679;DHT22;29279;50.858;4.392;2023-08-06T09:15:29;15.60;99.90
43679;DHT22;29279;50.858;4.392;2023-08-06T09:17:56;15.50;99.90
43679;DHT22;29279;50.858;4.392;2023-08-06T09:20:22;15.50;99.90
43679;DHT22;29279;50.858;4.392;2023-08-06T09:22:48;15.50;99.90
43679;DHT22;29279;50.858;4.392;2023-08-06T09:25:24;15.40;99.90
43679;DHT22;29279;50.858;4.392;2023-08-06T09:27:51;15.30;99.90
43679;DHT22;29279;50.858;4.392;2023-08-06T09:30:31;15.20;99.90
43679;DHT22;29279;50.858;4.392;2023-08-06T09:32:57;15.10;99.90
43679;DHT22;29279;50.858;4.392;2023-08-06T09:35:23;15.10;99.90
43679;DHT22;29279;50.858;4.392;2023-08-06T09:37:48;15.10;99.90
43679;DHT22;29279;50.858;4.392;2023-08-06T09:42:49;15.00;99.90
43679;DHT22;29279;50.858;4.392;2023-08-06T09:45:16;14.90;99.90
43679;DHT22;29279;50.858;4.392;2023-08-06T09:47:42;14.90;99.90
43679;DHT22;29279;50.858;4.392;2023-08-06T09:50:18;14.80;99.90
43679;DHT22;29279;50.858;4.392;2023-08-06T09:52:44;14.70;99.90
43679;DHT22;29279;50.858;4.392;2023-08-06T09:55:13;14.70;99.90
43679;DHT22;29279;50.858;4.392;2023-08-06T09:57:40;14.70;99.90
43679;DHT22;29279;50.858;4.392;2023-08-06T10:00:10;14.70;99.90
43679;DHT22;29279;50.858;4.392;2023-08-06T10:02:40;14.80;99.90
43679;DHT22;29279;50.858;4.392;2023-08-06T10:05:09;14.90;99.90
43679;DHT22;29279;50.858;4.392;2023-08-06T10:07:35;15.00;99.90
43679;DHT22;29279;50.858;4.392;2023-08-06T10:10:02;14.90;99.90
43679;DHT22;29279;50.858;4.392;2023-08-06T10:12:39;14.90;99.90
43679;DHT22;29279;50.858;4.392;2023-08-06T10:15:09;15.00;99.90
43679;DHT22;29279;50.858;4.392;2023-08-06T10:17:37;15.00;99.90
43679;DHT22;29279;50.858;4.392;2023-08-06T10:20:08;15.00;99.90
43679;DHT22;29279;50.858;4.392;2023-08-06T10:22:34;15.00;99.90
43679;DHT22;29279;50.858;4.392;2023-08-06T10:25:01;15.10;99.90
43679;DHT22;29279;50.858;4.392;2023-08-06T10:27:32;15.10;99.90
43679;DHT22;29279;50.858;4.392;2023-08-06T10:32:58;15.10;99.90
43679;DHT22;29279;50.858;4.392;2023-08-06T10:35:34;15.20;99.90
43679;DHT22;29279;50.858;4.392;2023-08-06T10:38:04;15.00;99.90
43679;DHT22;29279;50.858;4.392;2023-08-06T10:40:31;15.00;99.90
43679;DHT22;29279;50.858;4.392;2023-08-06T10:43:04;14.90;99.90
43679;DHT22;29279;50.858;4.392;2023-08-06T10:45:35;14.90;99.90
43679;DHT22;29279;50.858;4.392;2023-08-06T10:48:01;14.90;99.90
43679;DHT22;29279;50.858;4.392;2023-08-06T10:50:27;15.10;99.90
43679;DHT22;29279;50.858;4.392;2023-08-06T10:52:53;15.00;99.90
43679;DHT22;29279;50.858;4.392;2023-08-06T10:55:28;14.90;99.90
43679;DHT22;29279;50.858;4.392;2023-08-06T10:57:55;15.00;99.90
43679;DHT22;29279;50.858;4.392;2023-08-06T11:00:24;15.10;99.90
43679;DHT22;29279;50.858;4.392;2023-08-06T11:02:51;15.10;99.90
43679;DHT22;29279;50.858;4.392;2023-08-06T11:05:21;15.20;99.90
43679;DHT22;29279;50.858;4.392;2023-08-06T11:07:46;15.20;99.90
43679;DHT22;29279;50.858;4.392;2023-08-06T11:10:14;15.30;99.90
43679;DHT22;29279;50.858;4.392;2023-08-06T11:12:40;15.20;99.90
43679;DHT22;29279;50.858;4.392;2023-08-06T11:15:06;15.20;99.90
43679;DHT22;29279;50.858;4.392;2023-08-06T11:17:34;15.20;99.90
43679;DHT22;29279;50.858;4.392;2023-08-06T11:20:05;15.30;99.90
43679;DHT22;29279;50.858;4.392;2023-08-06T11:22:31;15.40;99.90
43679;DHT22;29279;50.858;4.392;2023-08-06T11:24:57;15.50;99.90
43679;DHT22;29279;50.858;4.392;2023-08-06T11:27:23;15.50;99.90
43679;DHT22;29279;50.858;4.392;2023-08-06T11:29:51;15.40;99.90
43679;DHT22;29279;50.858;4.392;2023-08-06T11:32:19;15.40;99.90
43679;DHT22;29279;50.858;4.392;2023-08-06T11:34:46;15.30;99.90
43679;DHT22;29279;50.858;4.392;2023-08-06T11:37:14;15.30;99.90
43679;DHT22;29279;50.858;4.392;2023-08-06T11:39:46;15.30;99.90
43679;DHT22;29279;50.858;4.392;2023-08-06T11:42:12;15.30;99.90
43679;DHT22;29279;50.858;4.392;2023-08-06T11:44:37;15.30;99.90
43679;DHT22;29279;50.858;4.392;2023-08-06T11:47:04;15.30;99.90
43679;DHT22;29279;50.858;4.392;2023-08-06T11:49:44;15.00;99.90
43679;DHT22;29279;50.858;4.392;2023-08-06T11:55:00;15.00;99.90
43679;DHT22;29279;50.858;4.392;2023-08-06T11:57:29;15.00;99.90
43679;DHT22;29279;50.858;4.392;2023-08-06T12:00:01;15.00;99.90
43679;DHT22;29279;50.858;4.392;2023-08-06T12:02:34;15.00;99.90
43679;DHT22;29279;50.858;4.392;2023-08-06T12:05:10;15.00;99.90
43679;DHT22;29279;50.858;4.392;2023-08-06T12:08:01;15.00;99.90
43679;DHT22;29279;50.858;4.392;2023-08-06T12:10:31;15.10;99.90
43679;DHT22;29279;50.858;4.392;2023-08-06T12:12:57;15.10;99.90
43679;DHT22;29279;50.858;4.392;2023-08-06T12:15:23;15.20;99.90
43679;DHT22;29279;50.858;4.392;2023-08-06T12:17:50;15.30;99.90
43679;DHT22;29279;50.858;4.392;2023-08-06T12:20:15;15.40;99.90
43679;DHT22;29279;50.858;4.392;2023-08-06T12:22:41;15.40;99.90
43679;DHT22;29279;50.858;4.392;2023-08-06T12:25:09;15.50;99.90
43679;DHT22;29279;50.858;4.392;2023-08-06T12:27:44;15.60;99.90
43679;DHT22;29279;50.858;4.392;2023-08-06T12:30:11;15.70;99.90
43679;DHT22;29279;50.858;4.392;2023-08-06T12:32:37;15.80;99.90
43679;DHT22;29279;50.858;4.392;2023-08-06T12:35:03;15.80;99.90
43679;DHT22;29279;50.858;4.392;2023-08-06T12:37:30;15.80;99.90
43679;DHT22;29279;50.858;4.392;2023-08-06T12:39:55;15.70;99.90
43679;DHT22;29279;50.858;4.392;2023-08-06T12:42:21;15.60;99.90
43679;DHT22;29279;50.858;4.392;2023-08-06T12:44:50;15.50;99.90
43679;DHT22;29279;50.858;4.392;2023-08-06T12:47:16;15.40;99.90
43679;DHT22;29279;50.858;4.392;2023-08-06T12:49:42;15.40;99.90
43679;DHT22;29279;50.858;4.392;2023-08-06T12:52:08;15.40;99.90
43679;DHT22;29279;50.858;4.392;2023-08-06T12:54:35;15.50;99.90
43679;DHT22;29279;50.858;4.392;2023-08-06T12:57:03;15.60;99.90
43679;DHT22;29279;50.858;4.392;2023-08-06T12:59:29;15.60;99.90
43679;DHT22;29279;50.858;4.392;2023-08-06T13:01:55;15.70;99.90
43679;DHT22;29279;50.858;4.392;2023-08-06T13:04:20;15.70;99.90
43679;DHT22;29279;50.858;4.392;2023-08-06T13:06:46;15.70;99.90
43679;DHT22;29279;50.858;4.392;2023-08-06T13:09:12;15.70;99.90
43679;DHT22;29279;50.858;4.392;2023-08-06T13:11:39;15.70;99.90
43679;DHT22;29279;50.858;4.392;2023-08-06T13:14:07;15.70;99.90
43679;DHT22;29279;50.858;4.392;2023-08-06T13:16:34;15.70;99.90
43679;DHT22;29279;50.858;4.392;2023-08-06T13:19:00;15.60;99.90
43679;DHT22;29279;50.858;4.392;2023-08-06T13:24:06;15.30;99.90
43679;DHT22;29279;50.858;4.392;2023-08-06T13:26:32;15.20;99.90
43679;DHT22;29279;50.858;4.392;2023-08-06T13:29:01;15.20;99.90
43679;DHT22;29279;50.858;4.392;2023-08-06T13:31:28;15.20;99.90
43679;DHT22;29279;50.858;4.392;2023-08-06T13:33:57;15.10;99.90
43679;DHT22;29279;50.858;4.392;2023-08-06T13:36:26;15.00;99.90
43679;DHT22;29279;50.858;4.392;2023-08-06T13:38:52;15.10;99.90
43679;DHT22;29279;50.858;4.392;2023-08-06T13:41:17;15.10;99.90
43679;DHT22;29279;50.858;4.392;2023-08-06T13:43:43;15.10;99.90
43679;DHT22;29279;50.858;4.392;2023-08-06T13:46:10;15.10;99.90
43679;DHT22;29279;50.858;4.392;2023-08-06T13:48:41;15.30;99.90
43679;DHT22;29279;50.858;4.392;2023-08-06T13:51:07;15.20;99.90
43679;DHT22;29279;50.858;4.392;2023-08-06T13:53:36;15.20;99.90
43679;DHT22;29279;50.858;4.392;2023-08-06T13:56:02;15.10;99.90
43679;DHT22;29279;50.858;4.392;2023-08-06T13:58:28;15.10;99.90
43679;DHT22;29279;50.858;4.392;2023-08-06T14:00:54;15.10;99.90
43679;DHT22;29279;50.858;4.392;2023-08-06T14:03:20;15.10;99.90
43679;DHT22;29279;50.858;4.392;2023-08-06T14:05:46;15.10;99.90
43679;DHT22;29279;50.858;4.392;2023-08-06T14:08:11;15.00;99.90
43679;DHT22;29279;50.858;4.392;2023-08-06T14:10:39;15.00;99.90
43679;DHT22;29279;50.858;4.392;2023-08-06T14:13:04;15.10;99.90
43679;DHT22;29279;50.858;4.392;2023-08-06T14:15:30;15.10;99.90
43679;DHT22;29279;50.858;4.392;2023-08-06T14:17:55;15.20;99.90
43679;DHT22;29279;50.858;4.392;2023-08-06T14:20:21;15.30;99.90
43679;DHT22;29279;50.858;4.392;2023-08-06T14:22:47;15.20;99.90
43679;DHT22;29279;50.858;4.392;2023-08-06T14:25:12;15.20;99.90
43679;DHT22;29279;50.858;4.392;2023-08-06T14:27:38;15.10;99.90
43679;DHT22;29279;50.858;4.392;2023-08-06T14:30:06;15.10;99.90
43679;DHT22;29279;50.858;4.392;2023-08-06T14:32:32;15.10;99.90
43679;DHT22;29279;50.858;4.392;2023-08-06T14:34:57;15.10;99.90
43679;DHT22;29279;50.858;4.392;2023-08-06T14:37:24;15.10;99.90
43679;DHT22;29279;50.858;4.392;2023-08-06T14:39:51;15.10;99.90
43679;DHT22;29279;50.858;4.392;2023-08-06T14:42:17;15.00;99.90
43679;DHT22;29279;50.858;4.392;2023-08-06T14:44:46;15.00;99.90
43679;DHT22;29279;50.858;4.392;2023-08-06T14:47:12;15.10;99.90
43679;DHT22;29279;50.858;4.392;2023-08-06T14:49:38;15.10;99.90
43679;DHT22;29279;50.858;4.392;2023-08-06T14:52:04;15.20;99.90
43679;DHT22;29279;50.858;4.392;2023-08-06T14:54:30;15.30;99.90
43679;DHT22;29279;50.858;4.392;2023-08-06T14:56:56;15.40;99.90
43679;DHT22;29279;50.858;4.392;2023-08-06T14:59:22;15.50;99.90
43679;DHT22;29279;50.858;4.392;2023-08-06T15:01:48;15.60;99.90
43679;DHT22;29279;50.858;4.392;2023-08-06T15:04:13;15.50;99.90
43679;DHT22;29279;50.858;4.392;2023-08-06T15:06:39;15.60;99.90
43679;DHT22;29279;50.858;4.392;2023-08-06T15:09:04;15.60;99.90
43679;DHT22;29279;50.858;4.392;2023-08-06T15:11:30;15.60;99.90
43679;DHT22;29279;50.858;4.392;2023-08-06T15:13:56;15.80;99.90
43679;DHT22;29279;50.858;4.392;2023-08-06T15:16:21;15.70;99.90
43679;DHT22;29279;50.858;4.392;2023-08-06T15:18:47;15.70;99.90
43679;DHT22;29279;50.858;4.392;2023-08-06T15:21:14;15.80;99.90
43679;DHT22;29279;50.858;4.392;2023-08-06T15:23:39;16.00;99.90
43679;DHT22;29279;50.858;4.392;2023-08-06T15:26:05;15.90;99.90
43679;DHT22;29279;50.858;4.392;2023-08-06T15:28:31;15.60;99.90
43679;DHT22;29279;50.858;4.392;2023-08-06T15:30:56;15.20;99.90
43679;DHT22;29279;50.858;4.392;2023-08-06T15:33:22;15.00;99.90
43679;DHT22;29279;50.858;4.392;2023-08-06T15:35:48;15.00;99.90
43679;DHT22;29279;50.858;4.392;2023-08-06T15:38:14;15.30;99.90
43679;DHT22;29279;50.858;4.392;2023-08-06T15:40:40;15.50;99.90
43679;DHT22;29279;50.858;4.392;2023-08-06T15:43:05;15.80;99.90
43679;DHT22;29279;50.858;4.392;2023-08-06T15:45:32;16.10;99.90
43679;DHT22;29279;50.858;4.392;2023-08-06T15:47:57;16.20;99.90
43679;DHT22;29279;50.858;4.392;2023-08-06T15:50:24;16.40;99.90